createdAt,value
2023-04-24T05:06:26.875Z,15.43
2023-04-24T05:09:30.423Z,17.65
2023-04-24T05:12:32.905Z,15.23
2023-04-24T05:15:35.415Z,13.65
2023-04-24T05:18:37.945Z,20.25
2023-04-24T05:21:41.773Z,19.33
2023-04-24T05:24:44.247Z,16.25
2023-04-24T05:27:47.373Z,13.80
2023-04-24T05:30:49.879Z,13.55
2023-04-24T05:33:52.366Z,13.57
2023-04-24T05:36:56.385Z,16.05
2023-04-24T05:39:58.866Z,14.05
2023-04-24T05:43:01.324Z,15.40
2023-04-24T05:46:03.876Z,11.43
2023-04-24T05:49:06.878Z,13.90
2023-04-24T05:52:10.752Z,11.75
2023-04-24T05:55:13.377Z,13.43
2023-04-24T05:58:16.550Z,10.85
2023-04-24T06:01:19.214Z,12.15
2023-04-24T06:04:22.614Z,10.02
2023-04-24T06:07:27.340Z,12.80
2023-04-24T06:10:29.900Z,10.52
2023-04-24T06:13:32.436Z,12.20
2023-04-24T06:16:35.183Z,11.45
2023-04-24T06:19:37.708Z,8.13
2023-04-24T06:22:42.001Z,7.32
2023-04-24T06:25:44.567Z,7.75
2023-04-24T06:28:47.032Z,7.15
2023-04-24T06:31:49.699Z,7.28
2023-04-24T06:34:53.180Z,11.40
2023-04-24T06:37:59.239Z,7.03
2023-04-24T06:41:01.855Z,6.70
2023-04-24T06:44:04.322Z,6.35
2023-04-24T06:47:07.033Z,7.80
2023-04-24T06:50:10.437Z,9.30
2023-04-24T06:53:15.384Z,5.47
2023-04-24T06:56:17.909Z,4.90
2023-04-24T06:59:20.702Z,5.25
2023-04-24T07:02:23.273Z,7.72
2023-04-24T07:05:25.891Z,7.88
2023-04-24T07:08:31.422Z,4.80
2023-04-24T07:11:33.912Z,5.43
2023-04-24T07:14:36.796Z,5.70
2023-04-24T07:17:43.872Z,4.18
2023-04-24T07:20:46.551Z,4.47
2023-04-24T07:23:50.366Z,4.32
2023-04-24T07:26:53.593Z,4.05
2023-04-24T07:29:56.109Z,3.70
2023-04-24T07:32:58.627Z,4.28
2023-04-24T07:36:01.250Z,5.20
2023-04-24T07:39:05.156Z,4.40
2023-04-24T07:42:07.715Z,3.00
2023-04-24T07:45:10.407Z,4.07
2023-04-24T07:48:14.721Z,5.50
2023-04-24T07:51:17.707Z,3.10
2023-04-24T07:54:21.993Z,3.60
2023-04-24T07:57:24.490Z,4.30
2023-04-24T08:00:27.206Z,3.92
2023-04-24T08:03:29.914Z,4.47
2023-04-24T08:06:32.936Z,3.88
2023-04-24T08:09:36.918Z,3.88
2023-04-24T08:12:39.594Z,5.10
2023-04-24T08:15:42.229Z,3.47
2023-04-24T08:18:44.848Z,3.17
2023-04-24T08:21:47.391Z,3.08
2023-04-24T08:24:51.246Z,2.10
2023-04-24T08:27:53.818Z,2.13
2023-04-24T08:30:56.589Z,2.38
2023-04-24T08:33:59.593Z,2.42
2023-04-24T08:37:02.249Z,2.28
2023-04-24T08:40:13.501Z,2.15
2023-04-24T08:43:16.688Z,1.58
2023-04-24T08:46:21.510Z,4.90
2023-04-24T08:49:26.303Z,3.08
2023-04-24T08:52:29.511Z,1.40
2023-04-24T08:55:35.368Z,2.75
2023-04-24T08:58:38.312Z,1.77
2023-04-24T09:01:42.392Z,4.40
2023-04-24T09:04:46.003Z,1.98
2023-04-24T09:07:56.033Z,4.53
2023-04-24T09:11:02.947Z,2.60
2023-04-24T09:14:06.086Z,1.88
2023-04-24T09:17:08.993Z,1.60
2023-04-24T09:20:12.190Z,0.77
2023-04-24T09:23:19.444Z,1.90
2023-04-24T09:26:23.852Z,2.35
2023-04-24T09:29:26.449Z,0.95
2023-04-24T09:32:31.022Z,1.27
2023-04-24T09:35:34.228Z,0.85
2023-04-24T09:38:37.911Z,1.90
2023-04-24T09:41:47.594Z,1.58
2023-04-24T09:44:58.928Z,1.25
2023-04-24T09:48:08.875Z,1.10
2023-04-24T09:51:12.321Z,2.47
2023-04-24T09:54:19.496Z,0.70
2023-04-24T09:57:23.550Z,2.45
2023-04-24T10:00:27.807Z,1.08
2023-04-24T10:03:32.237Z,1.25
2023-04-24T10:06:36.133Z,0.65
2023-04-24T10:09:38.718Z,1.45
2023-04-24T10:12:43.755Z,0.85
2023-04-24T10:15:47.690Z,1.27
2023-04-24T10:18:50.529Z,1.00
2023-04-24T10:21:53.072Z,1.00
2023-04-24T10:24:55.838Z,0.63
2023-04-24T10:28:01.263Z,3.92
2023-04-24T10:31:04.223Z,1.20
2023-04-24T10:34:07.826Z,2.50
2023-04-24T10:37:10.430Z,1.88
2023-04-24T10:40:17.390Z,1.13
2023-04-24T10:43:21.505Z,2.63
2023-04-24T10:46:24.248Z,3.13
2023-04-24T10:49:30.801Z,0.65
2023-04-24T10:52:46.084Z,1.25
2023-04-24T10:55:51.413Z,1.65
2023-04-24T10:58:55.488Z,1.10
2023-04-24T11:01:57.983Z,3.03
2023-04-24T11:05:05.109Z,1.05
2023-04-24T11:08:15.691Z,1.65
2023-04-24T11:11:21.816Z,0.43
2023-04-24T11:14:25.848Z,1.05
2023-04-24T11:17:32.894Z,1.65
2023-04-24T11:20:35.652Z,1.50
2023-04-24T11:23:39.005Z,2.75
2023-04-24T11:26:43.308Z,0.80
2023-04-24T11:29:49.476Z,1.80
2023-04-24T11:32:53.088Z,1.85
2023-04-24T11:35:55.802Z,4.22
2023-04-24T11:38:59.378Z,1.05
2023-04-24T11:42:04.540Z,0.85
2023-04-24T11:45:12.354Z,1.20
2023-04-24T11:48:22.675Z,0.85
2023-04-24T11:51:30.661Z,1.83
2023-04-24T11:54:36.175Z,0.88
2023-04-24T11:57:38.869Z,2.10
2023-04-24T12:00:42.706Z,0.90
2023-04-24T12:03:50.112Z,1.02
2023-04-24T12:07:02.229Z,0.98
2023-04-24T12:10:06.999Z,3.67
2023-04-24T12:13:11.415Z,1.92
2023-04-24T12:16:15.430Z,1.25
2023-04-24T12:19:21.288Z,1.25
2023-04-24T12:22:23.813Z,1.05
2023-04-24T12:25:28.625Z,1.73
2023-04-24T12:28:38.093Z,1.30
2023-04-24T12:31:42.169Z,2.53
2023-04-24T12:34:45.608Z,0.63
2023-04-24T12:37:48.118Z,2.10
2023-04-24T12:41:04.048Z,1.25
2023-04-24T12:44:13.164Z,1.45
2023-04-24T12:47:17.021Z,0.45
2023-04-24T12:50:19.559Z,1.00
2023-04-24T12:53:22.043Z,2.60
2023-04-24T12:56:24.794Z,1.50
2023-04-24T12:59:27.600Z,2.35
2023-04-24T13:02:32.502Z,1.98
2023-04-24T13:05:35.190Z,0.50
2023-04-24T13:08:37.677Z,4.43
2023-04-24T13:11:40.761Z,0.60
2023-04-24T13:14:43.493Z,1.10
2023-04-24T13:17:47.364Z,1.05
2023-04-24T13:20:49.976Z,3.28
2023-04-24T13:23:52.864Z,1.25
2023-04-24T13:26:55.447Z,1.52
2023-04-24T13:29:57.924Z,0.80
2023-04-24T13:33:01.919Z,1.52
2023-04-24T13:36:04.700Z,3.33
2023-04-24T13:39:07.942Z,1.95
2023-04-24T13:42:10.615Z,5.38
2023-04-24T13:45:23.896Z,2.10
2023-04-24T13:48:28.811Z,4.13
2023-04-24T13:51:32.042Z,2.28
2023-04-24T13:54:34.868Z,2.03
2023-04-24T13:57:39.200Z,1.20
2023-04-24T14:00:41.719Z,1.67
2023-04-24T14:03:45.895Z,1.88
2023-04-24T14:06:48.600Z,1.67
2023-04-24T14:09:51.225Z,1.65
2023-04-24T14:12:54.074Z,2.33
2023-04-24T14:15:56.664Z,4.00
2023-04-24T14:19:00.588Z,1.38
2023-04-24T14:22:03.314Z,2.88
2023-04-24T14:25:07.259Z,3.42
2023-04-24T14:28:09.790Z,5.97
2023-04-24T14:31:12.388Z,2.35
2023-04-24T14:34:17.097Z,3.78
2023-04-24T14:37:19.790Z,3.20
2023-04-24T14:40:52.430Z,3.95
2023-04-24T14:43:45.024Z,3.55
2023-04-24T14:46:47.900Z,2.90
2023-04-24T14:49:51.845Z,2.47
2023-04-24T14:52:54.356Z,3.40
2023-04-24T14:55:56.862Z,1.88
2023-04-24T14:58:59.520Z,1.75
2023-04-24T15:02:15.075Z,5.25
2023-04-24T15:05:20.325Z,1.73
2023-04-24T15:08:22.917Z,1.40
2023-04-24T15:11:25.460Z,1.83
2023-04-24T15:14:28.065Z,2.53
2023-04-24T15:17:30.714Z,2.28
2023-04-24T15:20:37.997Z,7.50
2023-04-24T15:23:41.183Z,2.63
2023-04-24T15:26:43.790Z,1.40
2023-04-24T15:29:46.343Z,2.28
2023-04-24T15:32:48.855Z,3.70
2023-04-24T15:35:52.703Z,2.33
2023-04-24T15:38:55.285Z,2.50
2023-04-24T15:41:57.892Z,2.03
2023-04-24T15:45:00.455Z,2.70
2023-04-24T15:48:03.178Z,1.38
2023-04-24T15:51:07.168Z,3.20
2023-04-24T15:54:09.640Z,1.67
2023-04-24T15:57:13.318Z,2.33
2023-04-24T16:00:18.248Z,1.75
2023-04-24T16:03:21.431Z,1.55
2023-04-24T16:06:25.464Z,2.13
2023-04-24T16:09:27.955Z,1.25
2023-04-24T16:12:30.571Z,3.28
2023-04-24T16:15:34.561Z,2.22
2023-04-24T16:18:37.057Z,1.90
2023-04-24T16:21:41.051Z,1.67
2023-04-24T16:24:44.650Z,1.60
2023-04-24T16:27:48.717Z,4.10
2023-04-24T16:30:51.334Z,3.60
2023-04-24T16:33:53.990Z,2.28
2023-04-24T16:36:58.125Z,7.40
2023-04-24T16:40:00.631Z,2.30
2023-04-24T16:43:03.143Z,3.03
2023-04-24T16:46:05.805Z,2.92
2023-04-24T16:49:08.300Z,1.67
2023-04-24T16:52:13.145Z,3.50
2023-04-24T16:55:15.718Z,2.47
2023-04-24T16:58:18.248Z,1.73
2023-04-24T17:01:20.826Z,1.65
2023-04-24T17:04:23.590Z,2.25
2023-04-24T17:07:27.574Z,1.75
2023-04-24T17:10:30.073Z,9.32
2023-04-24T17:13:32.543Z,2.28
2023-04-24T17:16:35.215Z,2.97
2023-04-24T17:19:37.916Z,2.58
2023-04-24T17:22:41.716Z,4.60
2023-04-24T17:25:44.224Z,1.98
2023-04-24T17:28:47.056Z,2.75
2023-04-24T17:31:49.835Z,1.52
2023-04-24T17:34:52.332Z,2.50
2023-04-24T17:37:56.904Z,1.60
2023-04-24T17:41:00.557Z,2.67
2023-04-24T17:44:03.107Z,1.98
2023-04-24T17:47:05.752Z,1.90
2023-04-24T17:50:08.875Z,1.65
2023-04-24T17:53:13.465Z,1.60
2023-04-24T17:56:16.027Z,4.40
2023-04-24T17:59:18.506Z,3.42
2023-04-24T18:02:21.100Z,3.75
2023-04-24T18:05:23.685Z,2.58
2023-04-24T18:08:27.607Z,1.88
2023-04-24T18:11:30.192Z,1.92
2023-04-24T18:14:32.711Z,3.28
2023-04-24T18:17:35.272Z,5.78
2023-04-24T18:20:37.892Z,2.10
2023-04-24T18:23:41.706Z,4.60
2023-04-24T18:26:44.200Z,1.90
2023-04-24T18:29:46.719Z,1.77
2023-04-24T18:32:49.619Z,2.13
2023-04-24T18:35:52.140Z,1.67
2023-04-24T18:38:55.969Z,2.85
2023-04-24T18:41:58.850Z,2.78
2023-04-24T18:45:02.411Z,3.00
2023-04-24T18:48:05.234Z,2.97
2023-04-24T18:51:08.824Z,2.90
2023-04-24T18:54:12.711Z,2.92
2023-04-24T18:57:15.347Z,2.25
2023-04-24T19:00:18.963Z,2.50
2023-04-24T19:03:21.558Z,2.85
2023-04-24T19:06:24.295Z,3.75
2023-04-24T19:09:28.136Z,2.47
2023-04-24T19:12:30.688Z,2.10
2023-04-24T19:15:33.701Z,2.88
2023-04-24T19:18:36.249Z,2.03
2023-04-24T19:21:38.797Z,1.33
2023-04-24T19:24:42.630Z,1.23
2023-04-24T19:27:45.198Z,0.90
2023-04-24T19:30:47.683Z,0.93
2023-04-24T19:33:50.258Z,1.50
2023-04-24T19:36:52.837Z,1.30
2023-04-24T19:59:50.679Z,0.80
2023-04-24T20:02:53.591Z,0.80
2023-04-24T20:06:05.304Z,0.82
2023-04-24T20:09:07.986Z,2.70
2023-04-24T21:00:56.010Z,1.48
2023-04-24T21:03:58.627Z,3.38
2023-04-24T21:07:01.192Z,2.25
